Eastside, Florida
Current Conditions -  °F | °C
As of 12:58 PM on Tuesday 27 Jan 2015 (Local Time) from KPAM Reporting Station
Clear Clear  
Wind Chill: 62°   Ceiling: Unl
Heat Index: 62°   Visibility: 10mi
Dew Point: 45°   Wind: 14mph
Humidity: 52%   Direction: 260°W
Pressure: 29.98"   Gusts: NA
Location:  30.1957°N, 85.4833°W
Report Text: KPAM 271858Z AUTO 26012KT 10SM CLR 17/07 A2998 RMK AO2 SLP155 T01690070 $
Loading
Personal Weather Stations






























Interactive Weather Map New forecast layout! Learn more

10-Day Weather Forecast

Advertisements
Track Severe Weather on mobile